createdAt,value
2019-04-23T00:00:20.460Z,2.30
2019-04-23T00:02:54.933Z,7.83
2019-04-23T00:05:35.457Z,1.73
2019-04-23T00:08:04.570Z,3.37
2019-04-23T00:10:26.168Z,3.20
2019-04-23T00:15:26.863Z,3.30
2019-04-23T00:17:47.839Z,3.77
2019-04-23T00:20:20.477Z,6.93
2019-04-23T00:23:02.009Z,6.10
2019-04-23T00:26:12.913Z,4.10
2019-04-23T00:28:45.551Z,3.57
2019-04-23T00:30:55.233Z,10.20
2019-04-23T00:33:25.058Z,4.23
2019-04-23T00:35:50.140Z,3.07
2019-04-23T00:38:26.498Z,3.70
2019-04-23T00:40:51.386Z,3.00
2019-04-23T00:43:22.895Z,2.97
2019-04-23T00:48:29.384Z,4.20
2019-04-23T00:50:52.197Z,2.97
2019-04-23T00:53:18.840Z,4.70
2019-04-23T00:55:53.615Z,3.13
2019-04-23T00:58:23.662Z,3.97
2019-04-23T01:00:52.803Z,5.13
2019-04-23T01:03:20.442Z,5.53
2019-04-23T01:06:00.604Z,3.53
2019-04-23T01:08:18.843Z,4.27
2019-04-23T01:11:03.216Z,6.33
2019-04-23T01:13:39.342Z,4.93
2019-04-23T01:16:05.752Z,4.07
2019-04-23T01:18:50.611Z,3.20
2019-04-23T01:20:54.068Z,3.40
2019-04-23T01:23:44.411Z,4.73
2019-04-23T01:26:26.418Z,3.60
2019-04-23T01:29:03.027Z,6.03
2019-04-23T01:31:47.968Z,5.70
2019-04-23T01:33:56.159Z,7.37
2019-04-23T01:36:25.264Z,4.17
2019-04-23T01:39:01.786Z,2.50
2019-04-23T01:41:28.372Z,2.73
2019-04-23T01:43:50.319Z,6.13
2019-04-23T01:46:29.178Z,4.47
2019-04-23T01:49:00.206Z,2.47
2019-04-23T01:51:26.479Z,6.93
2019-04-23T01:53:56.902Z,4.10
2019-04-23T01:56:24.662Z,3.90
2019-04-23T02:01:25.776Z,2.53
2019-04-23T02:03:58.256Z,1.90
2019-04-23T02:06:19.880Z,5.27
2019-04-23T02:08:56.875Z,5.70
2019-04-23T02:11:20.176Z,5.90
2019-04-23T02:13:48.798Z,3.40
2019-04-23T02:16:21.424Z,5.87
2019-04-23T02:18:47.796Z,8.23
2019-04-23T02:21:16.849Z,3.33
2019-04-23T02:23:59.190Z,6.97
2019-04-23T02:26:35.637Z,3.43
2019-04-23T02:29:13.276Z,3.50
2019-04-23T02:34:23.573Z,3.73
2019-04-23T02:36:39.869Z,7.10
2019-04-23T02:39:22.684Z,3.67
2019-04-23T02:41:41.369Z,4.87
2019-04-23T02:44:11.063Z,5.50
2019-04-23T02:46:31.725Z,2.77
2019-04-23T02:49:11.184Z,5.73
2019-04-23T02:56:37.955Z,3.93
2019-04-23T03:06:32.179Z,5.63
2019-04-23T03:08:49.185Z,2.30
2019-04-23T03:16:45.939Z,2.40
2019-04-23T03:22:09.585Z,2.63
2019-04-23T03:25:12.600Z,6.77
2019-04-23T03:30:09.102Z,3.63
2019-04-23T03:40:03.973Z,8.97
2019-04-23T03:42:37.232Z,2.70
2019-04-23T03:50:30.058Z,4.03
2019-04-23T03:54:49.199Z,4.70
2019-04-23T04:04:52.834Z,4.03
2019-04-23T04:13:22.814Z,3.70
2019-04-23T04:15:00.893Z,3.60
2019-04-23T04:17:20.138Z,4.83
2019-04-23T04:19:47.634Z,6.87
2019-04-23T04:22:29.277Z,5.63
2019-04-23T04:25:10.077Z,4.27
2019-04-23T04:27:27.081Z,7.43
2019-04-23T04:29:52.214Z,4.60
2019-04-23T04:32:12.033Z,5.47
2019-04-23T04:37:36.199Z,3.47
2019-04-23T04:42:10.446Z,6.60
2019-04-23T04:47:09.952Z,4.80
2019-04-23T04:52:22.245Z,6.10
2019-04-23T04:54:24.115Z,4.27
2019-04-23T04:57:12.978Z,5.37
2019-04-23T05:02:16.213Z,5.07
2019-04-23T05:04:42.537Z,4.20
2019-04-23T05:09:43.974Z,6.80
2019-04-23T05:14:33.419Z,9.43
2019-04-23T05:17:02.990Z,7.33
2019-04-23T05:19:40.785Z,4.07
2019-04-23T05:22:16.626Z,7.83
2019-04-23T05:24:30.382Z,7.27
2019-04-23T05:27:01.071Z,6.53
2019-04-23T05:29:19.967Z,6.70
2019-04-23T05:31:53.416Z,4.57
2019-04-23T05:34:20.587Z,6.73
2019-04-23T05:36:53.460Z,6.90
2019-04-23T05:42:06.632Z,7.57
2019-04-23T05:44:38.284Z,9.07
2019-04-23T05:46:52.202Z,9.93
2019-04-23T05:49:18.670Z,8.83
2019-04-23T05:54:19.103Z,10.07
2019-04-23T05:56:46.871Z,4.80
2019-04-23T05:59:17.687Z,7.20
2019-04-23T06:01:53.995Z,6.73
2019-04-23T06:04:22.013Z,9.67
2019-04-23T06:09:14.176Z,8.43
2019-04-23T06:14:20.397Z,8.10
2019-04-23T06:16:55.249Z,12.13
2019-04-23T06:19:15.785Z,6.53
2019-04-23T06:21:50.937Z,4.00
2019-04-23T06:24:16.569Z,7.97
2019-04-23T06:26:51.741Z,6.77
2019-04-23T06:29:15.828Z,7.27
2019-04-23T06:31:41.502Z,5.00
2019-04-23T06:34:12.512Z,9.27
2019-04-23T06:39:00.217Z,4.43
2019-04-23T06:41:37.536Z,5.37
2019-04-23T06:44:14.437Z,4.17
2019-04-23T06:46:46.007Z,4.63
2019-04-23T06:49:09.303Z,9.97
2019-04-23T06:54:03.338Z,6.97
2019-04-23T06:59:07.690Z,6.43
2019-04-23T07:01:37.753Z,8.50
2019-04-23T07:04:06.776Z,5.13
2019-04-23T07:06:30.134Z,7.13
2019-04-23T07:09:07.811Z,9.13
2019-04-23T07:11:40.403Z,9.33
2019-04-23T07:13:57.752Z,7.27
2019-04-23T07:16:27.828Z,7.90
2019-04-23T07:18:54.520Z,5.27
2019-04-23T07:21:23.568Z,8.97
2019-04-23T07:24:00.866Z,8.10
2019-04-23T07:28:53.160Z,7.07
2019-04-23T07:33:57.885Z,6.03
2019-04-23T07:36:22.823Z,10.03
2019-04-23T07:39:17.587Z,7.40
2019-04-23T07:42:03.525Z,4.97
2019-04-23T07:49:58.992Z,9.30
2019-04-23T07:52:18.015Z,14.43
2019-04-23T07:54:44.205Z,8.07
2019-04-23T07:57:18.706Z,9.07
2019-04-23T07:59:48.743Z,7.13
2019-04-23T08:04:56.217Z,6.33
2019-04-23T08:07:16.228Z,5.03
2019-04-23T08:09:48.142Z,7.97
2019-04-23T08:12:17.355Z,8.23
2019-04-23T08:14:42.696Z,5.10
2019-04-23T08:17:08.249Z,6.13
2019-04-23T08:19:42.605Z,7.23
2019-04-23T08:22:12.467Z,4.90
2019-04-23T08:24:50.600Z,7.60
2019-04-23T08:27:23.643Z,5.97
2019-04-23T08:29:50.903Z,5.03
2019-04-23T08:32:19.007Z,12.47
2019-04-23T08:34:58.609Z,5.83
2019-04-23T08:37:26.992Z,4.97
2019-04-23T08:39:46.386Z,7.93
2019-04-23T08:45:09.426Z,6.93
2019-04-23T08:47:29.705Z,5.60
2019-04-23T08:50:02.266Z,6.47
2019-04-23T08:52:43.125Z,7.83
2019-04-23T08:57:26.944Z,7.63
2019-04-23T08:59:55.666Z,9.37
2019-04-23T09:05:00.497Z,8.30
2019-04-23T09:07:28.132Z,7.00
2019-04-23T09:09:57.835Z,7.27
2019-04-23T09:12:33.091Z,7.63
2019-04-23T09:14:52.345Z,9.77
2019-04-23T09:20:06.518Z,5.80
2019-04-23T09:22:34.488Z,11.17
2019-04-23T09:27:22.578Z,6.60
2019-04-23T09:29:52.921Z,6.53
2019-04-23T09:32:26.553Z,4.43
2019-04-23T09:35:20.707Z,6.37
2019-04-23T09:38:10.219Z,9.73
2019-04-23T09:48:51.231Z,5.90
2019-04-23T09:51:17.265Z,4.47
2019-04-23T09:53:51.324Z,7.40
2019-04-23T09:56:14.608Z,6.03
2019-04-23T09:58:41.999Z,5.00
2019-04-23T10:01:26.554Z,7.60
2019-04-23T10:03:41.682Z,5.27
2019-04-23T10:06:05.963Z,6.47
2019-04-23T10:08:35.604Z,6.20
2019-04-23T10:10:59.759Z,5.53
2019-04-23T10:13:27.303Z,6.30
2019-04-23T10:15:55.552Z,5.70
2019-04-23T10:18:24.397Z,7.73
2019-04-23T10:20:52.408Z,5.00
2019-04-23T10:23:21.266Z,6.77
2019-04-23T10:25:49.910Z,5.20
2019-04-23T10:28:24.710Z,6.47
2019-04-23T10:30:54.454Z,6.70
2019-04-23T10:33:23.424Z,6.13
2019-04-23T10:35:58.125Z,8.20
2019-04-23T10:38:22.067Z,7.17
2019-04-23T10:40:50.166Z,5.60
2019-04-23T10:43:18.173Z,11.37
2019-04-23T10:46:31.143Z,6.30
2019-04-23T10:49:43.519Z,5.73
2019-04-23T10:52:02.593Z,7.57
2019-04-23T10:56:59.751Z,6.17
2019-04-23T10:59:35.468Z,5.47
2019-04-23T11:02:26.625Z,4.33
2019-04-23T11:04:47.534Z,5.87
2019-04-23T11:12:28.827Z,6.17
2019-04-23T11:14:58.333Z,8.30
2019-04-23T11:17:15.001Z,7.63
2019-04-23T11:22:34.359Z,8.93
2019-04-23T11:24:41.494Z,5.10
2019-04-23T11:27:17.853Z,6.37
2019-04-23T11:32:19.386Z,5.00
2019-04-23T11:34:56.731Z,5.60
2019-04-23T11:39:39.769Z,9.03
2019-04-23T11:42:23.435Z,7.27
2019-04-23T11:49:53.361Z,9.37
2019-04-23T11:52:12.772Z,8.57
2019-04-23T11:54:34.020Z,5.07
2019-04-23T11:57:24.481Z,6.97
2019-04-23T11:59:39.264Z,7.97
2019-04-23T12:02:07.505Z,6.90
2019-04-23T12:04:57.595Z,5.93
2019-04-23T12:07:41.356Z,6.80
2019-04-23T12:10:47.932Z,5.13
2019-04-23T12:13:15.402Z,6.80
2019-04-23T12:18:25.568Z,7.70
2019-04-23T12:20:37.692Z,6.03
2019-04-23T12:25:36.731Z,6.50
2019-04-23T12:28:06.566Z,9.87
2019-04-23T12:30:42.059Z,4.20
2019-04-23T12:33:03.347Z,4.93
2019-04-23T12:35:27.587Z,7.03
2019-04-23T12:40:40.418Z,8.30
2019-04-23T12:43:13.346Z,9.33
2019-04-23T12:53:10.591Z,5.63
2019-04-23T13:00:47.824Z,8.03
2019-04-23T13:03:02.787Z,7.37
2019-04-23T13:08:10.760Z,7.87
2019-04-23T13:13:16.705Z,9.90
2019-04-23T13:15:34.614Z,5.47
2019-04-23T13:18:03.863Z,10.00
2019-04-23T13:20:32.174Z,5.80
2019-04-23T13:28:23.232Z,5.50
2019-04-23T13:33:30.742Z,6.67
2019-04-23T13:40:55.726Z,6.60
2019-04-23T13:43:19.219Z,8.27
2019-04-23T13:48:17.986Z,6.93
2019-04-23T13:50:51.701Z,10.70
2019-04-23T13:53:32.024Z,10.87
2019-04-23T13:55:42.048Z,11.97
2019-04-23T14:11:19.753Z,10.83
2019-04-23T14:18:55.960Z,7.40
2019-04-23T14:21:11.222Z,7.50
2019-04-23T14:23:59.684Z,11.67
2019-04-23T14:26:20.781Z,10.83
2019-04-23T14:31:04.785Z,7.30
2019-04-23T14:41:09.571Z,8.23
2019-04-23T14:43:38.746Z,8.43
2019-04-23T14:48:46.584Z,10.33
2019-04-23T14:51:26.372Z,10.87
2019-04-23T14:53:39.685Z,11.73
2019-04-23T14:56:13.202Z,5.47
2019-04-23T14:58:42.783Z,8.60
2019-04-23T15:01:25.268Z,8.77
2019-04-23T15:03:44.541Z,4.80
2019-04-23T15:08:42.499Z,5.97
2019-04-23T15:13:41.308Z,10.97
2019-04-23T15:16:07.791Z,5.87
2019-04-23T15:19:02.977Z,8.07
2019-04-23T15:21:37.653Z,10.60
2019-04-23T15:27:04.891Z,6.93
2019-04-23T15:28:17.757Z,8.83
2019-04-23T15:31:24.728Z,11.47
2019-04-23T15:33:50.788Z,12.07
2019-04-23T15:41:15.167Z,7.07
2019-04-23T15:43:46.847Z,10.57
2019-04-23T15:46:11.699Z,9.27
2019-04-23T15:48:42.471Z,9.03
2019-04-23T15:51:11.830Z,6.80
2019-04-23T15:53:31.029Z,8.43
2019-04-23T15:56:12.085Z,9.03
2019-04-23T16:01:21.861Z,10.90
2019-04-23T16:03:19.728Z,12.47
2019-04-23T16:05:46.719Z,5.50
2019-04-23T16:08:52.945Z,10.57
2019-04-23T16:11:26.472Z,8.57
2019-04-23T16:13:53.971Z,9.33
2019-04-23T16:16:18.380Z,9.40
2019-04-23T16:21:37.002Z,11.80
2019-04-23T16:24:01.450Z,8.93
2019-04-23T16:26:29.830Z,8.23
2019-04-23T16:29:23.386Z,11.20
2019-04-23T16:31:27.634Z,8.33
2019-04-23T16:34:29.108Z,11.03
2019-04-23T16:36:48.527Z,11.43
2019-04-23T16:41:52.173Z,7.53
2019-04-23T16:44:21.660Z,13.30
2019-04-23T16:46:50.364Z,12.53
2019-04-23T16:51:38.809Z,7.27
2019-04-23T16:54:21.019Z,8.60
2019-04-23T16:56:56.068Z,9.47
2019-04-23T16:59:13.608Z,10.23
2019-04-23T17:01:34.458Z,9.50
2019-04-23T17:06:36.331Z,9.27
2019-04-23T17:11:33.982Z,12.23
2019-04-23T17:14:10.144Z,8.60
2019-04-23T17:19:10.360Z,9.47
2019-04-23T17:21:31.347Z,7.40
2019-04-23T17:24:15.087Z,11.90
2019-04-23T17:26:29.364Z,7.33
2019-04-23T17:31:35.135Z,10.77
2019-04-23T17:37:03.284Z,7.20
2019-04-23T17:39:27.780Z,8.23
2019-04-23T17:47:24.569Z,9.63
2019-04-23T17:49:55.617Z,8.93
2019-04-23T17:52:24.175Z,11.73
2019-04-23T17:54:51.557Z,9.57
2019-04-23T17:57:19.079Z,9.27
2019-04-23T18:00:08.399Z,13.07
2019-04-23T18:02:48.264Z,9.23
2019-04-23T18:04:56.870Z,7.80
2019-04-23T18:07:31.931Z,8.50
2019-04-23T18:09:52.041Z,9.60
2019-04-23T18:12:22.517Z,8.90
2019-04-23T18:14:40.659Z,13.63
2019-04-23T18:17:17.838Z,11.57
2019-04-23T18:19:58.464Z,7.13
2019-04-23T18:22:30.607Z,11.20
2019-04-23T18:25:17.112Z,9.97
2019-04-23T18:27:46.655Z,10.63
2019-04-23T18:30:23.838Z,6.40
2019-04-23T18:35:29.640Z,9.50
2019-04-23T18:38:05.429Z,10.77
2019-04-23T18:40:38.823Z,8.83
2019-04-23T18:48:37.374Z,16.30
2019-04-23T18:50:55.387Z,13.30
2019-04-23T18:53:27.537Z,8.60
2019-04-23T18:56:05.631Z,12.80
2019-04-23T18:58:21.965Z,9.93
2019-04-23T19:01:00.123Z,14.03
2019-04-23T19:03:37.312Z,13.78
2019-04-23T19:06:23.782Z,9.33
2019-04-23T19:11:44.343Z,9.27
2019-04-23T19:14:03.260Z,11.73
2019-04-23T19:16:31.413Z,9.40
2019-04-23T19:21:47.359Z,8.20
2019-04-23T19:24:00.934Z,15.77
2019-04-23T19:26:48.670Z,14.27
2019-04-23T19:28:56.114Z,8.47
2019-04-23T19:31:42.701Z,13.47
2019-04-23T19:34:17.889Z,12.43
2019-04-23T19:36:40.185Z,17.23
2019-04-23T19:39:11.878Z,13.47
2019-04-23T19:41:47.560Z,10.57
2019-04-23T19:44:01.343Z,13.40
2019-04-23T19:49:05.728Z,8.63
2019-04-23T19:51:35.783Z,10.43
2019-04-23T19:54:09.534Z,11.07
2019-04-23T19:56:43.430Z,9.27
2019-04-23T19:58:56.267Z,9.60
2019-04-23T20:03:56.073Z,11.60
2019-04-23T20:06:56.492Z,11.47
2019-04-23T20:09:17.686Z,11.70
2019-04-23T20:11:28.950Z,10.30
2019-04-23T20:16:29.925Z,8.30
2019-04-23T20:24:04.671Z,12.93
2019-04-23T20:26:17.206Z,11.87
2019-04-23T20:29:19.285Z,9.30
2019-04-23T20:31:59.037Z,10.10
2019-04-23T20:34:40.178Z,13.10
2019-04-23T20:44:35.889Z,12.30
2019-04-23T20:47:04.841Z,12.10
2019-04-23T20:49:31.809Z,13.53
2019-04-23T20:52:00.655Z,12.77
2019-04-23T20:54:22.689Z,12.90
2019-04-23T20:57:19.312Z,13.33
2019-04-23T20:59:45.554Z,10.97
2019-04-23T21:02:13.667Z,12.67
2019-04-23T21:04:51.150Z,13.03
2019-04-23T21:07:17.630Z,12.50
2019-04-23T21:09:51.189Z,12.07
2019-04-23T21:12:16.168Z,10.57
2019-04-23T21:15:03.277Z,12.57
2019-04-23T21:17:04.174Z,8.33
2019-04-23T21:19:50.783Z,12.07
2019-04-23T21:22:13.406Z,7.53
2019-04-23T21:24:39.729Z,9.23
2019-04-23T21:27:43.496Z,15.00
2019-04-23T21:30:00.149Z,13.57
2019-04-23T21:32:33.200Z,19.03
2019-04-23T21:35:05.600Z,15.20
2019-04-23T21:37:50.004Z,14.00
2019-04-23T21:40:47.675Z,15.20
2019-04-23T21:43:09.399Z,14.30
2019-04-23T21:45:40.763Z,12.40
2019-04-23T21:50:49.633Z,12.03
2019-04-23T21:52:59.505Z,10.33
2019-04-23T21:55:40.821Z,14.47
2019-04-23T22:00:39.684Z,9.70
2019-04-23T22:03:07.881Z,9.00
2019-04-23T22:05:32.480Z,13.70
2019-04-23T22:08:03.210Z,13.03
2019-04-23T22:10:27.401Z,12.73
2019-04-23T22:13:13.010Z,11.83
2019-04-23T22:15:43.166Z,13.60
2019-04-23T22:17:49.624Z,11.30
2019-04-23T22:20:25.942Z,9.70
2019-04-23T22:25:25.279Z,13.03
2019-04-23T22:27:54.965Z,12.17
2019-04-23T22:30:22.758Z,13.30
2019-04-23T22:32:56.111Z,10.33
2019-04-23T22:35:20.402Z,11.27
2019-04-23T22:38:02.482Z,11.17
2019-04-23T22:43:13.201Z,13.57
2019-04-23T22:47:50.935Z,13.30
2019-04-23T22:50:14.299Z,12.60
2019-04-23T22:52:51.743Z,13.00
2019-04-23T23:03:29.264Z,8.43
2019-04-23T23:06:08.428Z,11.37
2019-04-23T23:08:13.443Z,10.80
2019-04-23T23:10:47.841Z,11.27
2019-04-23T23:13:13.717Z,9.77
2019-04-23T23:15:49.167Z,12.03
2019-04-23T23:18:13.990Z,9.87
2019-04-23T23:20:47.941Z,8.30
2019-04-23T23:23:11.488Z,11.77
2019-04-23T23:25:39.718Z,14.40
2019-04-23T23:28:12.121Z,9.90
2019-04-23T23:30:45.471Z,13.00
2019-04-23T23:33:13.288Z,10.47
2019-04-23T23:35:35.297Z,13.33
2019-04-23T23:38:09.873Z,16.93
2019-04-23T23:40:35.561Z,13.37
2019-04-23T23:43:15.756Z,8.83
2019-04-23T23:45:44.901Z,12.43
2019-04-23T23:50:50.340Z,13.63
2019-04-23T23:53:11.656Z,11.80
2019-04-23T23:55:31.938Z,7.23
2019-04-23T23:58:10.362Z,9.47
